Terminal Aerodrome Forecast
Issued by NWS Portland, OR

Home | Current Version | Previous Version | Text Only | Print | Product List | Glossary On
Versions: 1 2 3 4 5 6 7 8 9 10 11 12 13 14 15 16 17 18 19 20 21 22 23 24 25 26
000
FTUS46 KPQR 191747 AAA
TAFPDX
TAF AMD
KPDX 191747Z 1918/2018 20011KT P6SM -RA OVC050
     FM192000 21013KT P6SM -RA BKN028 OVC050
     FM192300 24012G20KT P6SM VCSH SCT030 BKN050
     FM200200 25006KT P6SM BKN050
     FM201000 16004KT P6SM SCT150=

USA.gov is the U.S. government's official web portal to all federal, state and local government web resources and services.